createdAt,value
2023-08-06T00:00:21.541Z,10.95
2023-08-06T00:05:23.123Z,10.65
2023-08-06T00:10:24.668Z,11.15
2023-08-06T00:15:26.220Z,12.05
2023-08-06T00:20:27.830Z,11.77
2023-08-06T00:25:29.402Z,11.45
2023-08-06T00:30:31.070Z,13.13
2023-08-06T00:35:32.659Z,12.52
2023-08-06T00:40:34.227Z,12.48
2023-08-06T00:45:38.772Z,12.30
2023-08-06T00:50:40.860Z,12.68
2023-08-06T00:55:45.364Z,12.98
2023-08-06T01:00:47.235Z,13.57
2023-08-06T01:05:49.144Z,13.98
2023-08-06T01:11:27.643Z,13.90
2023-08-06T01:16:31.331Z,13.65
2023-08-06T01:21:32.944Z,13.60
2023-08-06T01:26:40.105Z,14.05
2023-08-06T01:31:45.597Z,14.88
2023-08-06T01:36:47.391Z,14.93
2023-08-06T01:41:52.083Z,13.50
2023-08-06T01:46:53.891Z,13.63
2023-08-06T01:51:55.439Z,14.68
2023-08-06T01:56:59.469Z,15.38
2023-08-06T02:02:01.027Z,14.10
2023-08-06T02:07:02.646Z,14.93
2023-08-06T02:12:04.658Z,15.13
2023-08-06T02:17:06.427Z,16.00
2023-08-06T02:22:07.984Z,15.65
2023-08-06T02:27:09.897Z,17.95
2023-08-06T02:32:11.456Z,19.08
2023-08-06T02:37:13.001Z,18.73
2023-08-06T02:42:14.630Z,20.52
2023-08-06T02:47:16.165Z,21.13
2023-08-06T02:52:18.003Z,20.00
2023-08-06T02:57:19.642Z,24.17
2023-08-06T03:02:21.209Z,20.02
2023-08-06T03:07:22.773Z,22.38
2023-08-06T03:12:24.330Z,22.40
2023-08-06T03:17:25.969Z,21.45
2023-08-06T03:22:27.594Z,24.55
2023-08-06T03:27:29.147Z,26.30
2023-08-06T03:32:30.794Z,22.83
2023-08-06T03:37:32.348Z,24.25
2023-08-06T03:42:33.911Z,22.45
2023-08-06T03:47:35.574Z,25.25
2023-08-06T03:52:37.205Z,23.83
2023-08-06T03:57:38.797Z,25.85
2023-08-06T04:02:40.561Z,27.30
2023-08-06T04:07:42.197Z,25.23
2023-08-06T04:12:43.842Z,25.10
2023-08-06T04:17:45.409Z,30.48
2023-08-06T04:22:47.016Z,25.35
2023-08-06T04:27:48.952Z,34.35
2023-08-06T04:32:51.698Z,27.00
2023-08-06T04:37:53.360Z,24.00
2023-08-06T04:42:54.905Z,31.42
2023-08-06T04:47:56.491Z,29.52
2023-08-06T04:52:58.085Z,29.50
2023-08-06T04:57:59.674Z,25.67
2023-08-06T05:03:02.468Z,33.83
2023-08-06T05:08:04.212Z,34.10
2023-08-06T05:13:05.752Z,26.65
2023-08-06T05:18:07.358Z,27.17
2023-08-06T05:23:09.226Z,28.33
2023-08-06T05:28:10.791Z,30.65
2023-08-06T05:33:12.353Z,31.92
2023-08-06T05:38:13.983Z,36.03
2023-08-06T05:43:15.841Z,32.63
2023-08-06T05:48:17.451Z,30.83
2023-08-06T05:53:19.075Z,31.35
2023-08-06T05:58:25.362Z,29.48
2023-08-06T06:03:27.875Z,34.60
2023-08-06T06:08:29.438Z,32.67
2023-08-06T06:13:30.942Z,26.00
2023-08-06T06:18:32.534Z,27.52
2023-08-06T06:23:34.084Z,23.35
2023-08-06T06:28:35.620Z,20.55
2023-08-06T06:33:37.318Z,19.58
2023-08-06T06:38:38.999Z,21.70
2023-08-06T06:43:41.030Z,15.73
2023-08-06T06:48:42.605Z,18.27
2023-08-06T06:53:44.167Z,18.38
2023-08-06T06:58:45.722Z,21.80
2023-08-06T07:03:47.324Z,21.17
2023-08-06T07:08:48.882Z,26.20
2023-08-06T07:13:57.001Z,26.38
2023-08-06T07:18:58.660Z,30.27
2023-08-06T07:24:00.957Z,29.15
2023-08-06T07:29:02.711Z,31.92
2023-08-06T07:34:05.309Z,30.73
2023-08-06T07:39:07.368Z,39.67
2023-08-06T07:44:09.015Z,33.85
2023-08-06T07:49:12.211Z,32.03
2023-08-06T07:54:13.905Z,34.30
2023-08-06T07:59:15.481Z,27.95
2023-08-06T08:04:16.994Z,27.63
2023-08-06T08:09:19.194Z,22.38
2023-08-06T08:14:20.809Z,30.30
2023-08-06T08:19:22.471Z,27.23
2023-08-06T08:24:27.179Z,20.83
2023-08-06T08:29:28.744Z,8.50
2023-08-06T08:34:30.358Z,6.25
2023-08-06T08:39:31.933Z,3.65
2023-08-06T08:44:34.624Z,3.90
2023-08-06T08:49:37.055Z,4.20
2023-08-06T08:54:40.219Z,4.47
2023-08-06T08:59:41.788Z,5.22
2023-08-06T09:04:44.664Z,6.82
2023-08-06T09:09:49.874Z,7.82
2023-08-06T09:14:51.507Z,8.07
2023-08-06T09:19:53.142Z,5.55
2023-08-06T09:24:54.684Z,5.80
2023-08-06T09:29:56.273Z,7.28
2023-08-06T09:34:58.377Z,6.70
2023-08-06T09:40:00.184Z,5.05
2023-08-06T09:45:07.550Z,5.00
2023-08-06T09:55:23.188Z,4.72
2023-08-06T10:00:25.046Z,5.20
2023-08-06T10:05:28.307Z,4.90
2023-08-06T10:10:30.830Z,4.40
2023-08-06T10:15:34.107Z,4.80
2023-08-06T10:20:36.242Z,5.15
2023-08-06T10:25:43.076Z,4.10
2023-08-06T10:30:49.000Z,3.28
2023-08-06T10:35:51.937Z,4.07
2023-08-06T10:40:53.777Z,3.90
2023-08-06T10:45:56.309Z,3.45
2023-08-06T10:50:58.111Z,3.95
2023-08-06T10:55:59.801Z,3.58
2023-08-06T11:01:01.785Z,2.92
2023-08-06T11:06:04.115Z,3.75
2023-08-06T11:11:14.412Z,3.50
2023-08-06T11:16:20.673Z,3.85
2023-08-06T11:21:23.033Z,3.67
2023-08-06T11:26:25.036Z,3.58
2023-08-06T11:31:26.824Z,3.55
2023-08-06T11:36:34.697Z,3.60
2023-08-06T11:41:39.162Z,2.45
2023-08-06T11:46:53.695Z,2.17
2023-08-06T11:51:55.501Z,2.53
2023-08-06T11:56:57.518Z,2.40
2023-08-06T12:02:00.879Z,2.28
2023-08-06T12:07:08.807Z,2.58
2023-08-06T12:12:10.427Z,2.42
2023-08-06T12:17:11.943Z,2.35
2023-08-06T12:22:14.715Z,2.33
2023-08-06T12:27:18.948Z,2.60
2023-08-06T12:32:20.609Z,3.10
2023-08-06T12:37:22.475Z,2.45
2023-08-06T12:42:25.572Z,2.03
2023-08-06T12:47:27.192Z,2.60
2023-08-06T12:52:28.770Z,3.28
2023-08-06T12:57:43.371Z,3.05
2023-08-06T13:02:49.788Z,2.13
2023-08-06T13:07:51.489Z,2.60
2023-08-06T13:12:53.028Z,2.33
2023-08-06T13:17:54.611Z,2.40
2023-08-06T13:22:56.441Z,2.40
2023-08-06T13:27:58.054Z,2.20
2023-08-06T13:32:59.761Z,2.35
2023-08-06T13:38:03.880Z,2.38
2023-08-06T13:43:06.578Z,2.95
2023-08-06T13:48:08.290Z,3.13
2023-08-06T13:53:09.801Z,2.90
2023-08-06T13:58:11.336Z,3.30
2023-08-06T14:03:13.184Z,2.97
2023-08-06T14:08:15.081Z,2.25
2023-08-06T14:13:16.789Z,2.50
2023-08-06T14:18:18.441Z,2.83
2023-08-06T14:23:20.027Z,2.80
2023-08-06T14:28:22.041Z,2.40
2023-08-06T14:33:27.849Z,2.45
2023-08-06T14:38:30.196Z,2.20
2023-08-06T14:43:31.720Z,2.38
2023-08-06T14:48:33.306Z,1.85
2023-08-06T14:53:35.003Z,1.85
2023-08-06T14:58:36.656Z,1.35
2023-08-06T15:03:38.292Z,1.42
2023-08-06T15:08:39.881Z,1.98
2023-08-06T15:13:41.721Z,1.30
2023-08-06T15:18:44.628Z,1.02
2023-08-06T15:23:46.180Z,1.25
2023-08-06T15:28:47.811Z,1.00
2023-08-06T15:33:49.886Z,1.88
2023-08-06T15:38:51.431Z,1.15
2023-08-06T15:43:53.479Z,1.20
2023-08-06T15:48:55.096Z,1.80
2023-08-06T15:53:56.820Z,0.90
2023-08-06T15:58:58.418Z,1.33
2023-08-06T16:04:00.112Z,1.05
2023-08-06T16:09:01.654Z,1.05
2023-08-06T16:14:03.673Z,1.23
2023-08-06T16:19:05.370Z,1.08
2023-08-06T16:24:08.010Z,1.35
2023-08-06T16:29:09.560Z,0.90
2023-08-06T16:34:11.071Z,0.95
2023-08-06T16:39:12.671Z,1.20
2023-08-06T16:44:14.284Z,1.02
2023-08-06T16:49:15.881Z,0.85
2023-08-06T16:54:17.469Z,1.27
2023-08-06T16:59:19.073Z,1.48
2023-08-06T17:04:21.280Z,1.38
2023-08-06T17:09:22.850Z,1.20
2023-08-06T17:14:24.423Z,1.83
2023-08-06T17:19:26.015Z,2.13
2023-08-06T17:24:27.564Z,1.52
2023-08-06T17:29:29.156Z,1.48
2023-08-06T17:34:30.733Z,1.50
2023-08-06T17:39:33.144Z,1.40
2023-08-06T17:44:34.728Z,1.48
2023-08-06T17:49:36.224Z,1.70
2023-08-06T17:54:37.764Z,1.83
2023-08-06T17:59:39.323Z,2.10
2023-08-06T18:04:40.822Z,2.22
2023-08-06T18:09:42.760Z,2.17
2023-08-06T18:14:45.185Z,2.28
2023-08-06T18:19:46.842Z,2.15
2023-08-06T18:24:48.742Z,2.10
2023-08-06T18:29:50.309Z,2.20
2023-08-06T18:34:51.895Z,2.08
2023-08-06T18:39:53.715Z,2.83
2023-08-06T18:44:55.397Z,2.00
2023-08-06T18:49:57.069Z,2.22
2023-08-06T18:54:58.688Z,1.92
2023-08-06T19:00:00.381Z,1.90
2023-08-06T19:05:05.917Z,2.22
2023-08-06T19:10:07.866Z,2.05
2023-08-06T19:15:09.774Z,2.45
2023-08-06T19:20:12.569Z,2.70
2023-08-06T19:25:14.147Z,3.08
2023-08-06T19:30:15.701Z,2.80
2023-08-06T19:35:17.309Z,3.30
2023-08-06T19:40:19.184Z,3.10
2023-08-06T19:45:20.902Z,2.53
2023-08-06T19:50:22.689Z,2.63
2023-08-06T19:55:24.269Z,3.55
2023-08-06T20:00:25.932Z,2.83
2023-08-06T20:05:27.788Z,3.25
2023-08-06T20:10:31.562Z,3.05
2023-08-06T20:15:33.247Z,3.20
2023-08-06T20:20:38.196Z,3.42
2023-08-06T20:25:39.756Z,4.32
2023-08-06T20:30:44.583Z,2.42
2023-08-06T20:35:46.125Z,1.70
2023-08-06T20:40:51.302Z,2.60
2023-08-06T20:45:56.982Z,2.20
2023-08-06T20:50:59.142Z,2.63
2023-08-06T20:56:02.964Z,2.20
2023-08-06T21:01:04.680Z,3.30
2023-08-06T21:06:08.076Z,2.25
2023-08-06T21:11:14.490Z,3.75
2023-08-06T21:16:16.287Z,1.98
2023-08-06T21:21:17.972Z,2.72
2023-08-06T21:26:19.609Z,1.88
2023-08-06T21:31:21.186Z,1.85
2023-08-06T21:36:25.011Z,1.80
2023-08-06T21:41:26.620Z,2.58
2023-08-06T21:46:28.267Z,2.25
2023-08-06T21:51:29.876Z,1.92
2023-08-06T21:56:31.498Z,2.30
2023-08-06T22:01:33.125Z,1.98
2023-08-06T22:06:34.663Z,2.50
2023-08-06T22:11:36.173Z,1.98
2023-08-06T22:16:37.828Z,2.60
2023-08-06T22:21:39.404Z,2.50
2023-08-06T22:26:41.023Z,2.63
2023-08-06T22:31:42.599Z,2.80
2023-08-06T22:36:44.163Z,3.13
2023-08-06T22:41:45.777Z,3.67
2023-08-06T22:46:47.302Z,3.80
2023-08-06T22:51:48.848Z,4.93
2023-08-06T22:56:52.242Z,4.18
2023-08-06T23:01:54.123Z,3.30
2023-08-06T23:06:55.856Z,2.63
2023-08-06T23:11:57.579Z,2.80
2023-08-06T23:16:59.184Z,2.83
2023-08-06T23:22:00.843Z,2.33
2023-08-06T23:27:02.457Z,2.78
2023-08-06T23:32:04.219Z,2.38
2023-08-06T23:37:06.134Z,3.58
2023-08-06T23:42:07.698Z,2.20
2023-08-06T23:47:09.513Z,3.22
2023-08-06T23:52:11.046Z,3.03
2023-08-06T23:57:12.678Z,3.08
